createdAt,value
2018-04-19T00:00:08.650Z,11.07
2018-04-19T00:02:36.814Z,9.03
2018-04-19T00:05:05.817Z,10.40
2018-04-19T00:07:33.937Z,11.90
2018-04-19T00:10:02.155Z,9.03
2018-04-19T00:12:31.038Z,11.90
2018-04-19T00:14:59.921Z,10.50
2018-04-19T00:17:28.810Z,10.07
2018-04-19T00:19:57.735Z,16.07
2018-04-19T00:22:25.847Z,11.20
2018-04-19T00:24:53.982Z,10.13
2018-04-19T00:27:22.147Z,13.10
2018-04-19T00:29:50.310Z,12.20
2018-04-19T00:32:18.426Z,10.30
2018-04-19T00:34:46.590Z,12.57
2018-04-19T00:37:14.718Z,12.57
2018-04-19T00:39:43.605Z,13.27
2018-04-19T00:42:12.490Z,15.17
2018-04-19T00:44:40.618Z,11.97
2018-04-19T00:47:08.762Z,12.30
2018-04-19T00:49:36.874Z,12.83
2018-04-19T00:52:05.002Z,12.07
2018-04-19T00:54:33.134Z,10.77
2018-04-19T00:57:01.362Z,10.57
2018-04-19T00:59:29.472Z,11.00
2018-04-19T01:01:57.606Z,13.00
2018-04-19T01:04:25.760Z,13.00
2018-04-19T01:06:54.648Z,11.60
2018-04-19T01:09:23.530Z,11.60
2018-04-19T01:11:52.415Z,12.13
2018-04-19T01:14:20.560Z,12.27
2018-04-19T01:16:48.688Z,13.20
2018-04-19T01:19:17.585Z,9.43
2018-04-19T01:21:45.705Z,16.00
2018-04-19T01:24:13.931Z,13.67
2018-04-19T01:26:42.927Z,13.47
2018-04-19T01:29:11.044Z,10.70
2018-04-19T01:31:39.278Z,11.47
2018-04-19T01:34:07.402Z,10.67
2018-04-19T01:36:35.527Z,10.77
2018-04-19T01:39:03.649Z,12.63
2018-04-19T01:41:31.787Z,10.40
2018-04-19T01:43:59.898Z,12.17
2018-04-19T01:46:28.018Z,10.53
2018-04-19T01:48:56.152Z,11.20
2018-04-19T01:51:25.778Z,13.10
2018-04-19T01:53:54.730Z,13.50
2018-04-19T01:56:22.868Z,10.33
2018-04-19T01:58:51.014Z,14.20
2018-04-19T02:01:19.892Z,10.47
2018-04-19T02:03:47.999Z,11.40
2018-04-19T02:06:16.130Z,10.43
2018-04-19T02:08:45.042Z,10.57
2018-04-19T02:11:13.925Z,11.90
2018-04-19T02:13:42.806Z,11.40
2018-04-19T02:16:11.722Z,11.40
2018-04-19T02:18:39.854Z,9.60
2018-04-19T02:21:07.966Z,10.40
2018-04-19T02:23:36.085Z,11.27
2018-04-19T02:26:04.222Z,11.73
2018-04-19T02:28:32.383Z,11.23
2018-04-19T02:31:01.262Z,12.90
2018-04-19T02:33:30.167Z,11.87
2018-04-19T02:35:59.041Z,11.80
2018-04-19T02:38:27.936Z,9.00
2018-04-19T02:40:56.829Z,10.50
2018-04-19T02:43:25.720Z,11.67
2018-04-19T02:45:54.627Z,10.73
2018-04-19T02:48:22.759Z,11.83
2018-04-19T02:50:50.886Z,12.33
2018-04-19T02:53:19.039Z,14.13
2018-04-19T02:55:47.181Z,13.77
2018-04-19T02:58:15.383Z,11.43
2018-04-19T03:00:43.563Z,11.27
2018-04-19T03:03:11.711Z,11.63
2018-04-19T03:05:40.633Z,11.40
2018-04-19T03:08:08.746Z,10.53
2018-04-19T03:10:36.979Z,11.37
2018-04-19T03:13:05.153Z,12.20
2018-04-19T03:15:33.276Z,11.50
2018-04-19T03:18:01.398Z,10.07
2018-04-19T03:20:29.531Z,11.87
2018-04-19T03:22:59.157Z,11.03
2018-04-19T03:25:28.039Z,14.40
2018-04-19T03:27:56.151Z,12.00
2018-04-19T03:30:24.277Z,13.07
2018-04-19T03:32:52.399Z,10.73
2018-04-19T03:35:20.521Z,11.83
2018-04-19T03:37:48.661Z,14.07
2018-04-19T03:40:16.799Z,12.00
2018-04-19T03:42:45.696Z,12.27
2018-04-19T03:45:13.847Z,11.30
2018-04-19T03:47:42.758Z,13.43
2018-04-19T03:50:10.886Z,11.50
2018-04-19T03:52:40.514Z,13.70
2018-04-19T03:55:09.424Z,15.87
2018-04-19T03:57:38.314Z,11.77
2018-04-19T04:00:06.432Z,14.90
2018-04-19T04:02:34.570Z,10.03
2018-04-19T04:05:02.738Z,13.73
2018-04-19T04:07:30.906Z,14.30
2018-04-19T04:09:59.021Z,12.97
2018-04-19T04:12:27.173Z,9.93
2018-04-19T04:14:55.315Z,14.93
2018-04-19T04:17:36.079Z,12.30
2018-04-19T04:23:22.550Z,16.50
2018-04-19T04:25:50.671Z,18.73
2018-04-19T04:28:19.560Z,14.23
2018-04-19T04:30:47.718Z,14.47
2018-04-19T04:33:15.831Z,12.60
2018-04-19T04:35:44.710Z,15.47
2018-04-19T04:38:13.594Z,13.87
2018-04-19T04:40:42.470Z,10.23
2018-04-19T04:43:11.112Z,14.43
2018-04-19T04:45:39.226Z,13.30
2018-04-19T04:48:07.350Z,12.67
2018-04-19T04:50:35.530Z,13.60
2018-04-19T04:53:03.638Z,12.97
2018-04-19T04:55:31.750Z,12.67
2018-04-19T04:57:59.909Z,10.80
2018-04-19T05:00:28.817Z,14.40
2018-04-19T05:02:57.896Z,15.90
2018-04-19T05:05:26.772Z,13.33
2018-04-19T05:07:54.883Z,13.80
2018-04-19T05:10:23.001Z,13.70
2018-04-19T05:12:51.159Z,14.33
2018-04-19T05:15:19.299Z,16.53
2018-04-19T05:17:47.418Z,13.10
2018-04-19T05:20:15.596Z,15.63
2018-04-19T05:22:43.714Z,16.80
2018-04-19T05:25:11.841Z,14.70
2018-04-19T05:27:40.722Z,14.10
2018-04-19T05:30:08.849Z,11.87
2018-04-19T05:32:36.994Z,13.03
2018-04-19T05:35:05.107Z,14.47
2018-04-19T05:37:33.214Z,12.70
2018-04-19T05:40:01.353Z,12.43
2018-04-19T05:42:29.501Z,11.50
2018-04-19T05:44:58.385Z,13.10
2018-04-19T05:47:27.297Z,15.83
2018-04-19T05:49:55.427Z,13.17
2018-04-19T05:52:23.597Z,13.60
2018-04-19T05:54:51.711Z,15.83
2018-04-19T05:57:19.821Z,11.47
2018-04-19T05:59:47.950Z,11.37
2018-04-19T06:02:16.094Z,16.80
2018-04-19T06:04:44.227Z,19.30
2018-04-19T06:07:12.344Z,18.20
2018-04-19T06:09:40.453Z,13.80
2018-04-19T06:12:08.617Z,16.77
2018-04-19T06:14:36.751Z,15.77
2018-04-19T06:17:06.399Z,11.60
2018-04-19T06:19:34.541Z,14.13
2018-04-19T06:22:02.676Z,14.77
2018-04-19T06:24:30.797Z,13.13
2018-04-19T06:26:59.714Z,15.03
2018-04-19T06:29:27.835Z,16.93
2018-04-19T06:31:55.980Z,16.40
2018-04-19T06:34:24.091Z,14.03
2018-04-19T06:36:52.243Z,16.50
2018-04-19T06:39:20.398Z,18.47
2018-04-19T06:41:48.508Z,12.57
2018-04-19T06:44:16.628Z,14.00
2018-04-19T06:46:44.764Z,17.03
2018-04-19T06:49:13.642Z,18.27
2018-04-19T06:51:41.776Z,17.73
2018-04-19T06:54:09.942Z,16.77
2018-04-19T06:56:38.094Z,20.50
2018-04-19T06:59:06.266Z,16.00
2018-04-19T07:01:35.163Z,13.10
2018-04-19T07:04:03.295Z,12.40
2018-04-19T07:06:31.499Z,13.97
2018-04-19T07:08:59.554Z,13.60
2018-04-19T07:11:27.655Z,9.67
2018-04-19T07:13:55.826Z,11.60
2018-04-19T07:16:24.718Z,10.87
2018-04-19T07:18:52.894Z,9.53
2018-04-19T07:21:21.770Z,11.30
2018-04-19T07:23:50.686Z,12.90
2018-04-19T07:26:18.834Z,12.57
2018-04-19T07:28:47.720Z,10.00
2018-04-19T07:31:16.595Z,13.30
2018-04-19T07:33:44.726Z,22.77
2018-04-19T07:36:12.860Z,14.80
2018-04-19T07:38:41.746Z,10.27
2018-04-19T07:41:10.646Z,14.23
2018-04-19T07:43:39.534Z,11.67
2018-04-19T07:46:08.455Z,12.60
2018-04-19T07:48:36.554Z,11.50
2018-04-19T07:51:04.673Z,18.93
2018-04-19T07:53:33.576Z,14.73
2018-04-19T07:56:02.463Z,12.20
2018-04-19T07:58:30.593Z,16.83
2018-04-19T08:00:58.681Z,11.13
2018-04-19T08:03:26.846Z,13.97
2018-04-19T08:05:55.059Z,12.30
2018-04-19T08:08:23.257Z,12.80
2018-04-19T08:10:51.362Z,13.30
2018-04-19T08:13:19.586Z,12.83
2018-04-19T08:15:47.730Z,11.40
2018-04-19T08:18:16.602Z,15.13
2018-04-19T08:20:44.754Z,9.60
2018-04-19T08:23:12.869Z,11.57
2018-04-19T08:25:41.808Z,13.33
2018-04-19T08:28:09.937Z,10.40
2018-04-19T08:30:38.030Z,14.50
2018-04-19T08:33:06.186Z,11.53
2018-04-19T08:35:35.066Z,12.07
2018-04-19T08:38:04.815Z,13.50
2018-04-19T08:40:32.915Z,10.60
2018-04-19T08:43:01.041Z,10.73
2018-04-19T08:45:30.013Z,11.13
2018-04-19T08:47:58.117Z,13.00
2018-04-19T08:50:26.236Z,13.20
2018-04-19T08:52:54.347Z,13.23
2018-04-19T08:55:23.227Z,10.20
2018-04-19T08:57:52.147Z,14.43
2018-04-19T09:00:20.255Z,18.37
2018-04-19T09:02:48.393Z,11.57
2018-04-19T09:05:17.282Z,12.70
2018-04-19T09:07:45.421Z,12.33
2018-04-19T09:10:13.551Z,10.73
2018-04-19T09:12:41.683Z,14.10
2018-04-19T09:15:10.679Z,11.73
2018-04-19T09:17:39.593Z,10.33
2018-04-19T09:20:07.705Z,14.00
2018-04-19T09:22:35.917Z,9.83
2018-04-19T09:25:04.843Z,14.77
2018-04-19T09:27:33.013Z,13.97
2018-04-19T09:30:01.117Z,13.80
2018-04-19T09:32:29.225Z,12.57
2018-04-19T09:34:58.143Z,11.70
2018-04-19T09:37:27.040Z,11.10
2018-04-19T09:39:55.136Z,14.87
2018-04-19T09:42:23.247Z,10.83
2018-04-19T09:44:51.407Z,11.90
2018-04-19T09:47:19.518Z,10.40
2018-04-19T09:49:47.628Z,8.43
2018-04-19T09:52:15.754Z,10.50
2018-04-19T09:54:43.916Z,8.93
2018-04-19T09:57:12.820Z,11.07
2018-04-19T09:59:40.932Z,14.07
2018-04-19T10:02:09.088Z,12.33
2018-04-19T10:04:37.183Z,11.83
2018-04-19T10:07:05.301Z,8.10
2018-04-19T10:09:34.298Z,9.40
2018-04-19T10:12:02.420Z,12.07
2018-04-19T10:14:30.526Z,8.27
2018-04-19T10:16:59.434Z,9.67
2018-04-19T10:19:28.357Z,7.47
2018-04-19T10:21:56.497Z,7.13
2018-04-19T10:24:25.449Z,8.87
2018-04-19T10:26:53.572Z,8.27
2018-04-19T10:29:22.443Z,7.70
2018-04-19T10:31:51.333Z,8.30
2018-04-19T10:34:20.252Z,7.53
2018-04-19T10:36:48.371Z,10.00
2018-04-19T10:39:17.335Z,8.07
2018-04-19T10:41:45.439Z,5.43
2018-04-19T10:44:13.649Z,7.47
2018-04-19T10:46:42.564Z,7.27
2018-04-19T10:49:10.787Z,6.33
2018-04-19T10:51:38.840Z,8.67
2018-04-19T10:54:06.958Z,8.40
2018-04-19T10:56:35.838Z,7.83
2018-04-19T10:59:04.751Z,9.17
2018-04-19T11:01:32.866Z,5.63
2018-04-19T11:04:00.974Z,8.63
2018-04-19T11:06:29.854Z,5.87
2018-04-19T11:08:57.965Z,8.63
2018-04-19T11:11:26.123Z,5.67
2018-04-19T11:13:55.146Z,5.67
2018-04-19T11:16:23.247Z,5.67
2018-04-19T11:18:51.466Z,8.60
2018-04-19T11:21:19.569Z,5.17
2018-04-19T11:23:47.668Z,6.47
2018-04-19T11:26:15.819Z,4.80
2018-04-19T11:28:43.945Z,7.37
2018-04-19T11:31:12.832Z,5.70
2018-04-19T11:33:41.715Z,4.97
2018-04-19T11:36:09.838Z,4.47
2018-04-19T11:38:37.938Z,8.53
2018-04-19T11:41:06.054Z,6.00
2018-04-19T11:43:34.972Z,3.47
2018-04-19T11:46:03.104Z,6.83
2018-04-19T11:48:31.216Z,6.10
2018-04-19T11:50:59.494Z,4.60
2018-04-19T11:53:27.570Z,6.70
2018-04-19T11:55:55.674Z,6.77
2018-04-19T11:58:23.917Z,6.67
2018-04-19T12:00:52.074Z,6.00
2018-04-19T12:03:20.213Z,4.87
2018-04-19T12:05:48.351Z,7.27
2018-04-19T12:08:16.496Z,5.97
2018-04-19T12:10:44.606Z,6.03
2018-04-19T12:13:12.758Z,3.67
2018-04-19T12:15:40.864Z,4.57
2018-04-19T12:18:09.016Z,5.33
2018-04-19T12:20:37.114Z,5.20
2018-04-19T12:23:06.751Z,4.90
2018-04-19T12:25:36.433Z,5.40
2018-04-19T12:28:04.521Z,6.87
2018-04-19T12:30:32.646Z,5.83
2018-04-19T12:33:00.746Z,5.80
2018-04-19T12:35:28.853Z,6.93
2018-04-19T12:37:57.789Z,6.43
2018-04-19T12:40:25.906Z,5.73
2018-04-19T12:42:54.781Z,4.77
2018-04-19T12:45:22.933Z,6.30
2018-04-19T12:47:51.038Z,4.40
2018-04-19T12:50:19.962Z,4.40
2018-04-19T12:52:48.148Z,5.67
2018-04-19T12:55:16.248Z,7.00
2018-04-19T12:57:44.353Z,9.03
2018-04-19T13:00:13.241Z,6.97
2018-04-19T13:02:42.113Z,8.03
2018-04-19T13:05:10.246Z,7.00
2018-04-19T13:07:38.397Z,6.20
2018-04-19T13:10:06.555Z,8.67
2018-04-19T13:12:35.545Z,6.30
2018-04-19T13:15:04.429Z,7.70
2018-04-19T13:17:32.550Z,3.50
2018-04-19T13:20:00.670Z,3.50
2018-04-19T13:22:28.800Z,4.77
2018-04-19T13:24:56.904Z,5.63
2018-04-19T13:27:25.014Z,6.87
2018-04-19T13:29:53.908Z,5.90
2018-04-19T13:32:22.107Z,4.37
2018-04-19T13:34:50.186Z,6.93
2018-04-19T13:37:18.308Z,6.53
2018-04-19T13:39:47.217Z,7.63
2018-04-19T13:42:15.361Z,7.37
2018-04-19T13:44:43.487Z,4.20
2018-04-19T13:47:11.634Z,3.90
2018-04-19T13:49:40.523Z,6.03
2018-04-19T13:52:09.409Z,5.20
2018-04-19T13:54:38.279Z,4.30
2018-04-19T13:57:07.943Z,6.07
2018-04-19T13:59:36.091Z,4.47
2018-04-19T14:02:04.998Z,7.17
2018-04-19T14:04:33.898Z,6.63
2018-04-19T14:07:01.995Z,6.70
2018-04-19T14:09:30.109Z,12.87
2018-04-19T14:11:59.040Z,5.03
2018-04-19T14:14:27.145Z,5.67
2018-04-19T14:16:55.274Z,3.30
2018-04-19T14:19:23.386Z,5.43
2018-04-19T14:21:51.494Z,3.63
2018-04-19T14:24:20.360Z,5.07
2018-04-19T14:26:48.525Z,5.47
2018-04-19T14:29:16.663Z,4.07
2018-04-19T14:31:44.918Z,4.63
2018-04-19T14:34:13.023Z,4.70
2018-04-19T14:36:41.127Z,4.93
2018-04-19T14:39:09.361Z,2.93
2018-04-19T14:41:37.472Z,6.53
2018-04-19T14:44:05.612Z,6.07
2018-04-19T14:46:33.708Z,4.50
2018-04-19T14:49:01.838Z,4.27
2018-04-19T14:51:29.950Z,3.83
2018-04-19T14:53:58.074Z,3.93
2018-04-19T14:56:26.959Z,3.77
2018-04-19T14:58:55.966Z,3.73
2018-04-19T15:01:24.214Z,5.70
2018-04-19T15:03:53.102Z,5.70
2018-04-19T15:06:21.214Z,4.13
2018-04-19T15:08:50.098Z,5.80
2018-04-19T15:11:18.234Z,5.53
2018-04-19T15:13:46.328Z,6.03
2018-04-19T15:16:15.272Z,7.40
2018-04-19T15:18:44.167Z,5.23
2018-04-19T15:21:12.320Z,5.63
2018-04-19T15:23:40.425Z,5.87
2018-04-19T15:26:08.532Z,4.67
2018-04-19T15:28:37.555Z,4.87
2018-04-19T15:31:05.729Z,5.97
2018-04-19T15:33:33.813Z,4.60
2018-04-19T15:36:01.969Z,5.93
2018-04-19T15:38:30.150Z,4.80
2018-04-19T15:40:58.257Z,3.80
2018-04-19T15:43:26.392Z,6.03
2018-04-19T15:45:54.489Z,7.70
2018-04-19T15:48:22.618Z,7.20
2018-04-19T15:50:50.763Z,5.40
2018-04-19T15:53:18.876Z,4.20
2018-04-19T15:55:46.989Z,5.00
2018-04-19T15:58:15.229Z,4.23
2018-04-19T16:00:43.403Z,5.87
2018-04-19T16:03:11.562Z,6.17
2018-04-19T16:05:39.682Z,4.17
2018-04-19T16:08:07.799Z,4.93
2018-04-19T16:10:36.688Z,8.27
2018-04-19T16:13:05.677Z,5.33
2018-04-19T16:15:34.553Z,6.53
2018-04-19T16:18:02.773Z,5.23
2018-04-19T16:20:30.897Z,3.50
2018-04-19T16:22:59.040Z,5.10
2018-04-19T16:25:27.254Z,4.87
2018-04-19T16:27:56.140Z,6.07
2018-04-19T16:30:24.310Z,6.70
2018-04-19T16:32:52.441Z,10.23
2018-04-19T16:35:20.585Z,5.83
2018-04-19T16:37:48.755Z,5.40
2018-04-19T16:40:17.667Z,7.67
2018-04-19T16:42:45.844Z,5.47
2018-04-19T16:45:14.019Z,2.77
2018-04-19T16:47:42.122Z,3.77
2018-04-19T16:50:10.314Z,8.73
2018-04-19T16:52:38.406Z,3.40
2018-04-19T16:55:07.285Z,7.60
2018-04-19T16:57:35.477Z,6.43
2018-04-19T17:00:03.681Z,6.43
2018-04-19T17:02:31.844Z,5.90
2018-04-19T17:04:59.949Z,7.20
2018-04-19T17:07:28.098Z,6.80
2018-04-19T17:09:56.270Z,7.07
2018-04-19T17:12:24.362Z,7.03
2018-04-19T17:14:52.526Z,33.40
2018-04-19T17:17:20.643Z,20.23
2018-04-19T17:19:48.867Z,6.10
2018-04-19T17:22:16.962Z,3.47
2018-04-19T17:24:45.100Z,5.33
2018-04-19T17:27:13.218Z,4.30
2018-04-19T17:29:41.436Z,6.43
2018-04-19T17:32:10.344Z,5.67
2018-04-19T17:34:38.525Z,7.73
2018-04-19T17:37:06.627Z,5.03
2018-04-19T17:39:34.868Z,4.27
2018-04-19T17:42:03.008Z,8.33
2018-04-19T17:44:31.905Z,7.83
2018-04-19T17:47:00.818Z,6.00
2018-04-19T17:49:28.944Z,7.00
2018-04-19T17:51:57.075Z,6.33
2018-04-19T17:54:25.255Z,7.53
2018-04-19T17:56:53.362Z,9.03
2018-04-19T17:59:21.500Z,8.20
2018-04-19T18:01:58.299Z,11.27
2018-04-19T18:04:29.702Z,10.30
2018-04-19T18:06:59.759Z,5.57
2018-04-19T18:09:27.856Z,7.67
2018-04-19T18:11:56.064Z,8.80
2018-04-19T18:14:24.976Z,10.23
2018-04-19T18:16:53.153Z,7.83
2018-04-19T18:19:21.272Z,7.77
2018-04-19T18:21:49.410Z,7.13
2018-04-19T18:24:17.646Z,9.40
2018-04-19T18:29:31.068Z,11.00
2018-04-19T18:32:02.378Z,10.90
2018-04-19T18:34:31.369Z,10.00
2018-04-19T18:36:59.624Z,11.87
2018-04-19T18:39:27.750Z,9.93
2018-04-19T18:41:55.882Z,9.23
2018-04-19T18:44:24.058Z,8.87
2018-04-19T18:46:52.191Z,9.67
2018-04-19T18:49:21.123Z,7.00
2018-04-19T18:51:49.238Z,9.43
2018-04-19T18:54:17.472Z,9.53
2018-04-19T18:56:45.630Z,9.47
2018-04-19T18:59:13.819Z,11.87
2018-04-19T19:01:41.942Z,9.90
2018-04-19T19:04:10.064Z,9.73
2018-04-19T19:06:38.173Z,11.13
2018-04-19T19:09:06.296Z,10.20
2018-04-19T19:11:34.486Z,6.60
2018-04-19T19:14:02.646Z,9.37
2018-04-19T19:16:30.746Z,10.67
2018-04-19T19:19:12.050Z,8.60
2018-04-19T19:21:40.157Z,9.63
2018-04-19T19:24:09.062Z,12.20
2018-04-19T19:26:37.219Z,10.93
2018-04-19T19:29:06.118Z,10.07
2018-04-19T19:31:34.261Z,12.37
2018-04-19T19:34:02.389Z,9.73
2018-04-19T19:36:30.505Z,10.43
2018-04-19T19:38:58.616Z,8.97
2018-04-19T19:41:26.766Z,8.70
2018-04-19T19:43:54.886Z,9.83
2018-04-19T19:46:23.007Z,11.63
2018-04-19T19:48:51.178Z,9.63
2018-04-19T19:51:19.300Z,8.47
2018-04-19T19:53:47.472Z,10.73
2018-04-19T19:56:15.581Z,12.93
2018-04-19T19:58:43.694Z,8.97
2018-04-19T20:01:11.823Z,14.33
2018-04-19T20:03:40.055Z,10.33
2018-04-19T20:06:08.166Z,11.90
2018-04-19T20:08:36.275Z,12.50
2018-04-19T20:11:05.186Z,10.53
2018-04-19T20:13:33.344Z,8.23
2018-04-19T20:16:02.281Z,11.10
2018-04-19T20:18:30.417Z,10.80
2018-04-19T20:20:59.289Z,12.20
2018-04-19T20:23:28.179Z,11.57
2018-04-19T20:25:57.218Z,10.43
2018-04-19T20:28:25.331Z,14.00
2018-04-19T20:30:53.471Z,9.43
2018-04-19T20:33:21.591Z,13.87
2018-04-19T20:35:49.786Z,12.87
2018-04-19T20:38:18.668Z,12.63
2018-04-19T20:40:47.550Z,9.20
2018-04-19T20:43:16.475Z,8.73
2018-04-19T20:45:44.590Z,11.20
2018-04-19T20:48:12.720Z,9.37
2018-04-19T20:50:40.821Z,13.50
2018-04-19T20:53:08.978Z,10.50
2018-04-19T20:55:37.085Z,12.50
2018-04-19T20:58:05.201Z,12.97
2018-04-19T21:00:33.332Z,12.07
2018-04-19T21:03:02.227Z,19.23
2018-04-19T21:05:30.395Z,14.17
2018-04-19T21:07:58.490Z,11.47
2018-04-19T21:10:27.372Z,11.73
2018-04-19T21:12:55.554Z,12.37
2018-04-19T21:15:24.449Z,13.43
2018-04-19T21:17:52.630Z,7.77
2018-04-19T21:20:21.512Z,12.77
2018-04-19T21:22:50.415Z,13.03
2018-04-19T21:25:19.328Z,10.27
2018-04-19T21:27:47.438Z,13.20
2018-04-19T21:30:15.542Z,14.53
2018-04-19T21:32:44.463Z,14.73
2018-04-19T21:35:12.604Z,11.17
2018-04-19T21:37:41.484Z,10.37
2018-04-19T21:40:09.651Z,9.37
2018-04-19T21:42:37.777Z,12.33
2018-04-19T21:45:05.913Z,12.00
2018-04-19T21:47:34.235Z,11.27
2018-04-19T21:50:02.354Z,12.17
2018-04-19T21:52:30.519Z,10.47
2018-04-19T21:54:58.758Z,9.80
2018-04-19T21:57:26.857Z,11.37
2018-04-19T21:59:55.026Z,11.23
2018-04-19T22:02:23.200Z,9.40
2018-04-19T22:04:51.351Z,10.60
2018-04-19T22:07:19.492Z,12.23
2018-04-19T22:09:48.405Z,14.67
2018-04-19T22:12:16.547Z,8.53
2018-04-19T22:14:44.720Z,12.20
2018-04-19T22:17:12.948Z,10.27
2018-04-19T22:19:41.070Z,12.63
2018-04-19T22:22:09.972Z,11.53
2018-04-19T22:24:38.894Z,20.97
2018-04-19T22:27:07.038Z,16.30
2018-04-19T22:29:35.944Z,17.17
2018-04-19T22:32:04.074Z,15.23
2018-04-19T22:34:32.288Z,11.77
2018-04-19T22:37:00.424Z,9.67
2018-04-19T22:39:28.560Z,11.13
2018-04-19T22:41:56.732Z,13.93
2018-04-19T22:44:24.904Z,9.33
2018-04-19T22:46:53.106Z,10.20
2018-04-19T22:49:21.928Z,9.33
2018-04-19T22:51:50.796Z,8.33
2018-04-19T22:54:18.945Z,14.13
2018-04-19T22:56:47.099Z,11.63
2018-04-19T22:59:15.237Z,12.10
2018-04-19T23:01:45.400Z,8.20
2018-04-19T23:04:13.529Z,8.97
2018-04-19T23:06:41.648Z,13.53
2018-04-19T23:09:09.794Z,11.63
2018-04-19T23:11:38.687Z,11.90
2018-04-19T23:14:06.868Z,10.30
2018-04-19T23:16:35.008Z,12.93
2018-04-19T23:19:03.134Z,12.37
2018-04-19T23:21:31.258Z,13.87
2018-04-19T23:24:00.158Z,9.93
2018-04-19T23:26:29.078Z,14.80
2018-04-19T23:28:57.192Z,10.07
2018-04-19T23:31:25.374Z,10.00
2018-04-19T23:33:53.586Z,11.87
2018-04-19T23:36:21.727Z,11.60
2018-04-19T23:38:49.928Z,13.57
2018-04-19T23:41:18.107Z,9.03
2018-04-19T23:43:46.244Z,9.97
2018-04-19T23:46:14.445Z,13.13
2018-04-19T23:48:43.331Z,10.53
2018-04-19T23:51:12.228Z,10.80
2018-04-19T23:53:41.127Z,12.70
2018-04-19T23:56:09.289Z,14.40
2018-04-19T23:58:38.191Z,11.90
